sensor_id;sensor_type;location;lat;lon;timestamp;P1;durP1;ratioP1;P2;durP2;ratioP2
32734;SDS011;19112;51.076;3.706;2022-12-18T00:01:16;123.65;;;55.53;;
32734;SDS011;19112;51.076;3.706;2022-12-18T00:03:48;118.90;;;55.10;;
32734;SDS011;19112;51.076;3.706;2022-12-18T00:06:16;119.03;;;55.30;;
32734;SDS011;19112;51.076;3.706;2022-12-18T00:08:42;113.68;;;54.58;;
32734;SDS011;19112;51.076;3.706;2022-12-18T00:11:19;116.88;;;54.83;;
32734;SDS011;19112;51.076;3.706;2022-12-18T00:13:48;123.63;;;55.38;;
32734;SDS011;19112;51.076;3.706;2022-12-18T00:16:15;110.45;;;53.30;;
32734;SDS011;19112;51.076;3.706;2022-12-18T00:18:45;121.85;;;54.22;;
32734;SDS011;19112;51.076;3.706;2022-12-18T00:21:12;113.07;;;52.35;;
32734;SDS011;19112;51.076;3.706;2022-12-18T00:23:40;119.05;;;53.28;;
32734;SDS011;19112;51.076;3.706;2022-12-18T00:26:10;116.13;;;50.97;;
32734;SDS011;19112;51.076;3.706;2022-12-18T00:28:40;120.78;;;53.30;;
32734;SDS011;19112;51.076;3.706;2022-12-18T00:31:07;126.28;;;55.17;;
32734;SDS011;19112;51.076;3.706;2022-12-18T00:33:36;119.03;;;54.10;;
32734;SDS011;19112;51.076;3.706;2022-12-18T00:36:06;111.53;;;50.08;;
32734;SDS011;19112;51.076;3.706;2022-12-18T00:38:40;113.20;;;47.83;;
32734;SDS011;19112;51.076;3.706;2022-12-18T00:41:08;121.85;;;50.28;;
32734;SDS011;19112;51.076;3.706;2022-12-18T00:43:36;110.38;;;48.90;;
32734;SDS011;19112;51.076;3.706;2022-12-18T00:46:03;115.22;;;48.95;;
32734;SDS011;19112;51.076;3.706;2022-12-18T00:48:29;112.82;;;50.92;;
32734;SDS011;19112;51.076;3.706;2022-12-18T00:50:56;118.60;;;50.33;;
32734;SDS011;19112;51.076;3.706;2022-12-18T00:53:21;95.95;;;44.97;;
32734;SDS011;19112;51.076;3.706;2022-12-18T00:55:47;110.57;;;46.90;;
32734;SDS011;19112;51.076;3.706;2022-12-18T00:58:14;103.93;;;46.38;;
32734;SDS011;19112;51.076;3.706;2022-12-18T01:00:42;112.25;;;46.60;;
32734;SDS011;19112;51.076;3.706;2022-12-18T01:03:09;96.18;;;43.60;;
32734;SDS011;19112;51.076;3.706;2022-12-18T01:05:39;103.13;;;43.83;;
32734;SDS011;19112;51.076;3.706;2022-12-18T01:08:06;103.22;;;41.45;;
32734;SDS011;19112;51.076;3.706;2022-12-18T01:10:33;97.15;;;39.58;;
32734;SDS011;19112;51.076;3.706;2022-12-18T01:12:58;102.63;;;42.33;;
32734;SDS011;19112;51.076;3.706;2022-12-18T01:15:24;104.47;;;42.05;;
32734;SDS011;19112;51.076;3.706;2022-12-18T01:17:51;96.55;;;41.83;;
32734;SDS011;19112;51.076;3.706;2022-12-18T01:20:18;102.85;;;42.97;;
32734;SDS011;19112;51.076;3.706;2022-12-18T01:22:44;102.32;;;42.80;;
32734;SDS011;19112;51.076;3.706;2022-12-18T01:25:09;101.45;;;42.05;;
32734;SDS011;19112;51.076;3.706;2022-12-18T01:27:35;94.38;;;39.85;;
32734;SDS011;19112;51.076;3.706;2022-12-18T01:30:01;94.53;;;40.63;;
32734;SDS011;19112;51.076;3.706;2022-12-18T01:32:29;108.63;;;42.35;;
32734;SDS011;19112;51.076;3.706;2022-12-18T01:34:56;101.40;;;42.05;;
32734;SDS011;19112;51.076;3.706;2022-12-18T01:37:22;98.50;;;41.25;;
32734;SDS011;19112;51.076;3.706;2022-12-18T01:39:47;92.70;;;39.35;;
32734;SDS011;19112;51.076;3.706;2022-12-18T01:42:15;90.43;;;37.13;;
32734;SDS011;19112;51.076;3.706;2022-12-18T01:47:21;92.78;;;39.63;;
32734;SDS011;19112;51.076;3.706;2022-12-18T01:50:50;89.20;;;37.95;;
32734;SDS011;19112;51.076;3.706;2022-12-18T01:53:11;67.67;;;28.63;;
32734;SDS011;19112;51.076;3.706;2022-12-18T01:55:45;92.95;;;36.63;;
32734;SDS011;19112;51.076;3.706;2022-12-18T01:58:17;97.10;;;38.05;;
32734;SDS011;19112;51.076;3.706;2022-12-18T02:00:45;89.95;;;36.78;;
32734;SDS011;19112;51.076;3.706;2022-12-18T02:03:11;84.40;;;35.25;;
32734;SDS011;19112;51.076;3.706;2022-12-18T02:05:40;81.30;;;35.03;;
32734;SDS011;19112;51.076;3.706;2022-12-18T02:08:34;88.25;;;37.13;;
32734;SDS011;19112;51.076;3.706;2022-12-18T02:11:17;90.75;;;37.33;;
32734;SDS011;19112;51.076;3.706;2022-12-18T02:17:11;88.00;;;36.47;;
32734;SDS011;19112;51.076;3.706;2022-12-18T02:28:17;88.03;;;37.25;;
32734;SDS011;19112;51.076;3.706;2022-12-18T02:30:49;86.78;;;36.92;;
32734;SDS011;19112;51.076;3.706;2022-12-18T02:33:17;87.00;;;33.38;;
32734;SDS011;19112;51.076;3.706;2022-12-18T02:35:45;78.45;;;32.53;;
32734;SDS011;19112;51.076;3.706;2022-12-18T02:38:14;82.32;;;33.30;;
32734;SDS011;19112;51.076;3.706;2022-12-18T02:40:41;83.82;;;33.63;;
32734;SDS011;19112;51.076;3.706;2022-12-18T02:43:10;80.03;;;33.47;;
32734;SDS011;19112;51.076;3.706;2022-12-18T02:45:46;78.65;;;31.52;;
32734;SDS011;19112;51.076;3.706;2022-12-18T02:48:13;79.15;;;34.38;;
32734;SDS011;19112;51.076;3.706;2022-12-18T02:50:49;89.30;;;33.42;;
32734;SDS011;19112;51.076;3.706;2022-12-18T02:53:50;82.85;;;33.38;;
32734;SDS011;19112;51.076;3.706;2022-12-18T02:56:35;83.30;;;31.75;;
32734;SDS011;19112;51.076;3.706;2022-12-18T02:59:15;76.95;;;30.77;;
32734;SDS011;19112;51.076;3.706;2022-12-18T03:04:43;77.32;;;31.05;;
32734;SDS011;19112;51.076;3.706;2022-12-18T03:07:35;74.40;;;31.42;;
32734;SDS011;19112;51.076;3.706;2022-12-18T03:10:28;76.13;;;32.17;;
32734;SDS011;19112;51.076;3.706;2022-12-18T03:13:04;80.00;;;31.48;;
32734;SDS011;19112;51.076;3.706;2022-12-18T03:15:45;76.53;;;30.33;;
32734;SDS011;19112;51.076;3.706;2022-12-18T03:18:23;91.18;;;33.65;;
32734;SDS011;19112;51.076;3.706;2022-12-18T03:20:55;87.60;;;31.60;;
32734;SDS011;19112;51.076;3.706;2022-12-18T03:23:28;79.75;;;31.98;;
32734;SDS011;19112;51.076;3.706;2022-12-18T03:26:01;80.18;;;31.58;;
32734;SDS011;19112;51.076;3.706;2022-12-18T03:28:33;81.65;;;31.83;;
32734;SDS011;19112;51.076;3.706;2022-12-18T03:31:03;78.07;;;29.20;;
32734;SDS011;19112;51.076;3.706;2022-12-18T03:33:41;76.80;;;31.00;;
32734;SDS011;19112;51.076;3.706;2022-12-18T03:36:19;74.72;;;31.17;;
32734;SDS011;19112;51.076;3.706;2022-12-18T03:38:45;81.53;;;31.02;;
32734;SDS011;19112;51.076;3.706;2022-12-18T03:49:39;76.18;;;30.15;;
32734;SDS011;19112;51.076;3.706;2022-12-18T03:55:31;78.45;;;31.38;;
32734;SDS011;19112;51.076;3.706;2022-12-18T03:57:59;75.88;;;31.15;;
32734;SDS011;19112;51.076;3.706;2022-12-18T04:00:29;71.15;;;29.70;;
32734;SDS011;19112;51.076;3.706;2022-12-18T04:02:56;80.57;;;32.15;;
32734;SDS011;19112;51.076;3.706;2022-12-18T04:05:25;79.57;;;30.73;;
32734;SDS011;19112;51.076;3.706;2022-12-18T04:07:53;73.93;;;30.08;;
32734;SDS011;19112;51.076;3.706;2022-12-18T04:10:21;69.05;;;30.27;;
32734;SDS011;19112;51.076;3.706;2022-12-18T04:12:47;83.85;;;30.25;;
32734;SDS011;19112;51.076;3.706;2022-12-18T04:15:13;73.78;;;31.05;;
32734;SDS011;19112;51.076;3.706;2022-12-18T04:17:39;73.78;;;29.52;;
32734;SDS011;19112;51.076;3.706;2022-12-18T04:20:14;76.68;;;30.88;;
32734;SDS011;19112;51.076;3.706;2022-12-18T04:22:40;75.45;;;28.35;;
32734;SDS011;19112;51.076;3.706;2022-12-18T04:25:06;74.05;;;28.73;;
32734;SDS011;19112;51.076;3.706;2022-12-18T04:27:33;74.03;;;30.48;;
32734;SDS011;19112;51.076;3.706;2022-12-18T04:29:59;73.63;;;29.65;;
32734;SDS011;19112;51.076;3.706;2022-12-18T04:32:25;70.00;;;28.63;;
32734;SDS011;19112;51.076;3.706;2022-12-18T04:34:51;74.85;;;29.17;;
32734;SDS011;19112;51.076;3.706;2022-12-18T04:37:17;69.05;;;28.00;;
32734;SDS011;19112;51.076;3.706;2022-12-18T04:39:43;74.53;;;27.90;;
32734;SDS011;19112;51.076;3.706;2022-12-18T04:42:09;73.75;;;28.33;;
32734;SDS011;19112;51.076;3.706;2022-12-18T04:44:34;68.68;;;27.10;;
32734;SDS011;19112;51.076;3.706;2022-12-18T04:47:01;68.60;;;28.20;;
32734;SDS011;19112;51.076;3.706;2022-12-18T04:49:27;65.88;;;27.00;;
32734;SDS011;19112;51.076;3.706;2022-12-18T04:51:53;71.13;;;27.20;;
32734;SDS011;19112;51.076;3.706;2022-12-18T04:54:18;68.57;;;27.15;;
32734;SDS011;19112;51.076;3.706;2022-12-18T04:56:44;66.57;;;28.00;;
32734;SDS011;19112;51.076;3.706;2022-12-18T04:59:10;70.20;;;28.95;;
32734;SDS011;19112;51.076;3.706;2022-12-18T05:01:36;67.22;;;26.67;;
32734;SDS011;19112;51.076;3.706;2022-12-18T05:04:02;70.55;;;26.92;;
32734;SDS011;19112;51.076;3.706;2022-12-18T05:06:28;65.80;;;26.63;;
32734;SDS011;19112;51.076;3.706;2022-12-18T05:08:54;67.90;;;27.90;;
32734;SDS011;19112;51.076;3.706;2022-12-18T05:11:20;64.07;;;26.90;;
32734;SDS011;19112;51.076;3.706;2022-12-18T05:13:46;66.95;;;29.02;;
32734;SDS011;19112;51.076;3.706;2022-12-18T05:16:14;67.63;;;26.30;;
32734;SDS011;19112;51.076;3.706;2022-12-18T05:18:40;68.15;;;28.30;;
32734;SDS011;19112;51.076;3.706;2022-12-18T05:21:06;61.03;;;24.80;;
32734;SDS011;19112;51.076;3.706;2022-12-18T05:23:32;69.78;;;27.10;;
32734;SDS011;19112;51.076;3.706;2022-12-18T05:26:00;67.50;;;25.17;;
32734;SDS011;19112;51.076;3.706;2022-12-18T05:28:31;57.38;;;23.80;;
32734;SDS011;19112;51.076;3.706;2022-12-18T05:31:00;58.40;;;25.65;;
32734;SDS011;19112;51.076;3.706;2022-12-18T05:33:31;67.53;;;25.50;;
32734;SDS011;19112;51.076;3.706;2022-12-18T05:35:59;60.65;;;25.42;;
32734;SDS011;19112;51.076;3.706;2022-12-18T05:38:27;69.18;;;28.02;;
32734;SDS011;19112;51.076;3.706;2022-12-18T05:40:54;61.35;;;25.63;;
32734;SDS011;19112;51.076;3.706;2022-12-18T05:43:20;61.78;;;26.38;;
32734;SDS011;19112;51.076;3.706;2022-12-18T05:45:47;67.65;;;26.50;;
32734;SDS011;19112;51.076;3.706;2022-12-18T05:48:15;63.15;;;25.80;;
32734;SDS011;19112;51.076;3.706;2022-12-18T05:50:42;62.17;;;24.48;;
32734;SDS011;19112;51.076;3.706;2022-12-18T05:53:10;57.92;;;23.70;;
32734;SDS011;19112;51.076;3.706;2022-12-18T05:55:37;61.72;;;26.65;;
32734;SDS011;19112;51.076;3.706;2022-12-18T05:58:06;65.53;;;26.35;;
32734;SDS011;19112;51.076;3.706;2022-12-18T06:00:35;59.42;;;24.80;;
32734;SDS011;19112;51.076;3.706;2022-12-18T06:03:06;57.37;;;24.00;;
32734;SDS011;19112;51.076;3.706;2022-12-18T06:05:37;53.85;;;23.95;;
32734;SDS011;19112;51.076;3.706;2022-12-18T06:08:05;60.78;;;24.17;;
32734;SDS011;19112;51.076;3.706;2022-12-18T06:10:31;55.75;;;23.27;;
32734;SDS011;19112;51.076;3.706;2022-12-18T06:12:57;60.10;;;23.92;;
32734;SDS011;19112;51.076;3.706;2022-12-18T06:15:23;58.97;;;23.67;;
32734;SDS011;19112;51.076;3.706;2022-12-18T06:17:49;64.50;;;23.48;;
32734;SDS011;19112;51.076;3.706;2022-12-18T06:20:15;57.97;;;23.13;;
32734;SDS011;19112;51.076;3.706;2022-12-18T06:22:41;63.25;;;24.27;;
32734;SDS011;19112;51.076;3.706;2022-12-18T06:25:07;56.75;;;23.27;;
32734;SDS011;19112;51.076;3.706;2022-12-18T06:27:33;61.47;;;24.83;;
32734;SDS011;19112;51.076;3.706;2022-12-18T06:29:59;62.15;;;23.75;;
32734;SDS011;19112;51.076;3.706;2022-12-18T06:32:25;59.00;;;24.63;;
32734;SDS011;19112;51.076;3.706;2022-12-18T06:34:52;69.15;;;24.95;;
32734;SDS011;19112;51.076;3.706;2022-12-18T06:37:18;59.60;;;23.20;;
32734;SDS011;19112;51.076;3.706;2022-12-18T06:39:44;59.78;;;24.23;;
32734;SDS011;19112;51.076;3.706;2022-12-18T06:42:10;56.17;;;22.95;;
32734;SDS011;19112;51.076;3.706;2022-12-18T06:44:36;57.63;;;22.52;;
32734;SDS011;19112;51.076;3.706;2022-12-18T06:47:02;52.60;;;22.13;;
32734;SDS011;19112;51.076;3.706;2022-12-18T06:49:28;51.08;;;21.48;;
32734;SDS011;19112;51.076;3.706;2022-12-18T06:51:53;52.75;;;21.67;;
32734;SDS011;19112;51.076;3.706;2022-12-18T06:54:19;47.40;;;19.48;;
32734;SDS011;19112;51.076;3.706;2022-12-18T06:56:45;53.03;;;21.33;;
32734;SDS011;19112;51.076;3.706;2022-12-18T06:59:12;47.10;;;20.77;;
32734;SDS011;19112;51.076;3.706;2022-12-18T07:01:39;54.22;;;21.38;;
32734;SDS011;19112;51.076;3.706;2022-12-18T07:04:05;49.15;;;19.90;;
32734;SDS011;19112;51.076;3.706;2022-12-18T07:06:31;53.97;;;20.30;;
32734;SDS011;19112;51.076;3.706;2022-12-18T07:08:56;57.95;;;22.17;;
32734;SDS011;19112;51.076;3.706;2022-12-18T07:11:22;51.20;;;21.60;;
32734;SDS011;19112;51.076;3.706;2022-12-18T07:13:49;50.58;;;20.08;;
32734;SDS011;19112;51.076;3.706;2022-12-18T07:16:16;50.05;;;21.35;;
32734;SDS011;19112;51.076;3.706;2022-12-18T07:18:44;52.55;;;21.42;;
32734;SDS011;19112;51.076;3.706;2022-12-18T07:21:12;50.45;;;20.67;;
32734;SDS011;19112;51.076;3.706;2022-12-18T07:23:41;47.53;;;19.33;;
32734;SDS011;19112;51.076;3.706;2022-12-18T07:26:08;51.22;;;19.75;;
32734;SDS011;19112;51.076;3.706;2022-12-18T07:28:37;50.13;;;20.17;;
32734;SDS011;19112;51.076;3.706;2022-12-18T07:31:05;48.45;;;19.80;;
32734;SDS011;19112;51.076;3.706;2022-12-18T07:33:33;45.97;;;18.95;;
32734;SDS011;19112;51.076;3.706;2022-12-18T07:36:00;46.92;;;20.15;;
32734;SDS011;19112;51.076;3.706;2022-12-18T07:38:28;48.20;;;19.75;;
32734;SDS011;19112;51.076;3.706;2022-12-18T07:40:59;49.75;;;19.27;;
32734;SDS011;19112;51.076;3.706;2022-12-18T07:43:39;49.83;;;20.25;;
32734;SDS011;19112;51.076;3.706;2022-12-18T07:46:06;49.25;;;20.55;;
32734;SDS011;19112;51.076;3.706;2022-12-18T07:48:33;47.88;;;20.30;;
32734;SDS011;19112;51.076;3.706;2022-12-18T07:51:00;47.65;;;19.15;;
32734;SDS011;19112;51.076;3.706;2022-12-18T07:53:26;46.42;;;18.15;;
32734;SDS011;19112;51.076;3.706;2022-12-18T07:55:59;47.38;;;19.27;;
32734;SDS011;19112;51.076;3.706;2022-12-18T07:58:29;44.75;;;17.42;;
32734;SDS011;19112;51.076;3.706;2022-12-18T08:01:02;47.15;;;18.80;;
32734;SDS011;19112;51.076;3.706;2022-12-18T08:03:30;42.95;;;17.50;;
32734;SDS011;19112;51.076;3.706;2022-12-18T08:06:02;41.70;;;17.88;;
32734;SDS011;19112;51.076;3.706;2022-12-18T08:08:30;42.33;;;17.75;;
32734;SDS011;19112;51.076;3.706;2022-12-18T08:10:56;40.53;;;19.20;;
32734;SDS011;19112;51.076;3.706;2022-12-18T08:13:22;40.63;;;17.42;;
32734;SDS011;19112;51.076;3.706;2022-12-18T08:15:58;43.10;;;17.55;;
32734;SDS011;19112;51.076;3.706;2022-12-18T08:18:26;53.10;;;19.40;;
32734;SDS011;19112;51.076;3.706;2022-12-18T08:20:53;45.08;;;17.88;;
32734;SDS011;19112;51.076;3.706;2022-12-18T08:23:19;43.95;;;18.50;;
32734;SDS011;19112;51.076;3.706;2022-12-18T08:25:45;42.65;;;18.52;;
32734;SDS011;19112;51.076;3.706;2022-12-18T08:28:11;45.28;;;20.15;;
32734;SDS011;19112;51.076;3.706;2022-12-18T08:30:37;48.50;;;18.02;;
32734;SDS011;19112;51.076;3.706;2022-12-18T08:33:03;47.70;;;18.17;;
32734;SDS011;19112;51.076;3.706;2022-12-18T08:35:29;42.05;;;19.63;;
32734;SDS011;19112;51.076;3.706;2022-12-18T08:37:55;44.30;;;19.10;;
32734;SDS011;19112;51.076;3.706;2022-12-18T08:40:21;42.75;;;18.77;;
32734;SDS011;19112;51.076;3.706;2022-12-18T08:42:47;51.15;;;22.23;;
32734;SDS011;19112;51.076;3.706;2022-12-18T08:45:31;41.40;;;18.15;;
32734;SDS011;19112;51.076;3.706;2022-12-18T08:47:56;42.13;;;19.48;;
32734;SDS011;19112;51.076;3.706;2022-12-18T08:50:22;45.45;;;19.27;;
32734;SDS011;19112;51.076;3.706;2022-12-18T08:52:48;45.78;;;19.88;;
32734;SDS011;19112;51.076;3.706;2022-12-18T08:55:14;41.65;;;18.75;;
32734;SDS011;19112;51.076;3.706;2022-12-18T08:57:39;41.15;;;18.23;;
32734;SDS011;19112;51.076;3.706;2022-12-18T09:00:05;39.88;;;17.15;;
32734;SDS011;19112;51.076;3.706;2022-12-18T09:02:32;41.55;;;18.05;;
32734;SDS011;19112;51.076;3.706;2022-12-18T09:04:58;41.10;;;18.50;;
32734;SDS011;19112;51.076;3.706;2022-12-18T09:07:24;43.95;;;18.38;;
32734;SDS011;19112;51.076;3.706;2022-12-18T09:09:49;39.40;;;16.88;;
32734;SDS011;19112;51.076;3.706;2022-12-18T09:12:15;46.50;;;19.73;;
32734;SDS011;19112;51.076;3.706;2022-12-18T09:14:41;43.20;;;19.23;;
32734;SDS011;19112;51.076;3.706;2022-12-18T09:17:07;38.38;;;17.55;;
32734;SDS011;19112;51.076;3.706;2022-12-18T09:19:32;41.45;;;17.88;;
32734;SDS011;19112;51.076;3.706;2022-12-18T09:21:58;38.95;;;17.63;;
32734;SDS011;19112;51.076;3.706;2022-12-18T09:24:24;40.13;;;18.15;;
32734;SDS011;19112;51.076;3.706;2022-12-18T09:26:52;43.65;;;18.77;;
32734;SDS011;19112;51.076;3.706;2022-12-18T09:29:19;41.53;;;18.55;;
32734;SDS011;19112;51.076;3.706;2022-12-18T09:31:45;41.33;;;18.30;;
32734;SDS011;19112;51.076;3.706;2022-12-18T09:34:12;47.88;;;21.27;;
32734;SDS011;19112;51.076;3.706;2022-12-18T09:36:38;45.53;;;20.02;;
32734;SDS011;19112;51.076;3.706;2022-12-18T09:39:04;40.00;;;17.73;;
32734;SDS011;19112;51.076;3.706;2022-12-18T09:41:33;38.75;;;17.85;;
32734;SDS011;19112;51.076;3.706;2022-12-18T09:44:14;41.92;;;19.00;;
32734;SDS011;19112;51.076;3.706;2022-12-18T09:46:51;44.55;;;18.95;;
32734;SDS011;19112;51.076;3.706;2022-12-18T09:49:42;29.10;;;13.50;;
32734;SDS011;19112;51.076;3.706;2022-12-18T09:52:14;40.70;;;18.85;;
32734;SDS011;19112;51.076;3.706;2022-12-18T09:55:00;40.10;;;17.80;;
32734;SDS011;19112;51.076;3.706;2022-12-18T09:57:40;38.95;;;18.23;;
32734;SDS011;19112;51.076;3.706;2022-12-18T10:00:19;38.22;;;18.55;;
32734;SDS011;19112;51.076;3.706;2022-12-18T10:02:49;42.65;;;19.05;;
32734;SDS011;19112;51.076;3.706;2022-12-18T10:05:25;45.22;;;21.77;;
32734;SDS011;19112;51.076;3.706;2022-12-18T10:14:20;44.40;;;19.95;;
32734;SDS011;19112;51.076;3.706;2022-12-18T10:17:19;42.80;;;19.20;;
32734;SDS011;19112;51.076;3.706;2022-12-18T10:23:18;42.67;;;20.63;;
32734;SDS011;19112;51.076;3.706;2022-12-18T10:26:09;42.78;;;18.73;;
32734;SDS011;19112;51.076;3.706;2022-12-18T10:28:37;48.75;;;20.98;;
32734;SDS011;19112;51.076;3.706;2022-12-18T10:31:05;47.05;;;21.77;;
32734;SDS011;19112;51.076;3.706;2022-12-18T10:33:32;45.60;;;19.60;;
32734;SDS011;19112;51.076;3.706;2022-12-18T10:35:59;43.50;;;18.70;;
32734;SDS011;19112;51.076;3.706;2022-12-18T10:38:28;45.22;;;24.75;;
32734;SDS011;19112;51.076;3.706;2022-12-18T10:41:01;43.45;;;20.35;;
32734;SDS011;19112;51.076;3.706;2022-12-18T10:43:37;44.03;;;22.30;;
32734;SDS011;19112;51.076;3.706;2022-12-18T10:51:04;44.42;;;20.10;;
32734;SDS011;19112;51.076;3.706;2022-12-18T10:53:33;46.42;;;20.15;;
32734;SDS011;19112;51.076;3.706;2022-12-18T10:56:02;44.50;;;20.52;;
32734;SDS011;19112;51.076;3.706;2022-12-18T10:58:32;43.30;;;20.95;;
32734;SDS011;19112;51.076;3.706;2022-12-18T11:01:13;43.88;;;21.33;;
32734;SDS011;19112;51.076;3.706;2022-12-18T11:06:19;45.05;;;21.20;;
32734;SDS011;19112;51.076;3.706;2022-12-18T11:08:59;45.88;;;20.70;;
32734;SDS011;19112;51.076;3.706;2022-12-18T11:11:31;50.35;;;22.15;;
32734;SDS011;19112;51.076;3.706;2022-12-18T11:14:02;49.13;;;21.35;;
32734;SDS011;19112;51.076;3.706;2022-12-18T11:16:46;44.45;;;19.70;;
32734;SDS011;19112;51.076;3.706;2022-12-18T11:22:18;41.90;;;19.27;;
32734;SDS011;19112;51.076;3.706;2022-12-18T11:24:55;40.03;;;21.08;;
32734;SDS011;19112;51.076;3.706;2022-12-18T11:27:26;41.35;;;21.42;;
32734;SDS011;19112;51.076;3.706;2022-12-18T11:30:06;49.30;;;23.83;;
32734;SDS011;19112;51.076;3.706;2022-12-18T11:32:38;36.53;;;19.27;;
32734;SDS011;19112;51.076;3.706;2022-12-18T11:37:53;43.80;;;20.60;;
32734;SDS011;19112;51.076;3.706;2022-12-18T11:40:35;44.65;;;19.98;;
32734;SDS011;19112;51.076;3.706;2022-12-18T11:45:59;44.53;;;20.75;;
32734;SDS011;19112;51.076;3.706;2022-12-18T11:48:36;47.17;;;20.75;;
32734;SDS011;19112;51.076;3.706;2022-12-18T11:54:44;41.00;;;17.65;;
32734;SDS011;19112;51.076;3.706;2022-12-18T12:11:07;40.85;;;17.95;;
32734;SDS011;19112;51.076;3.706;2022-12-18T12:16:45;36.45;;;17.77;;
32734;SDS011;19112;51.076;3.706;2022-12-18T12:19:48;40.92;;;17.67;;
32734;SDS011;19112;51.076;3.706;2022-12-18T12:22:51;43.97;;;19.50;;
32734;SDS011;19112;51.076;3.706;2022-12-18T12:25:31;40.63;;;18.02;;
32734;SDS011;19112;51.076;3.706;2022-12-18T12:38:59;41.40;;;19.25;;
32734;SDS011;19112;51.076;3.706;2022-12-18T12:41:31;45.08;;;19.73;;
32734;SDS011;19112;51.076;3.706;2022-12-18T12:44:22;46.25;;;20.67;;
32734;SDS011;19112;51.076;3.706;2022-12-18T12:47:00;44.33;;;21.88;;
32734;SDS011;19112;51.076;3.706;2022-12-18T12:49:39;44.85;;;21.95;;
32734;SDS011;19112;51.076;3.706;2022-12-18T12:52:12;48.67;;;21.83;;
32734;SDS011;19112;51.076;3.706;2022-12-18T12:54:52;62.80;;;30.40;;
32734;SDS011;19112;51.076;3.706;2022-12-18T12:57:33;61.65;;;30.35;;
32734;SDS011;19112;51.076;3.706;2022-12-18T13:02:50;45.83;;;20.92;;
32734;SDS011;19112;51.076;3.706;2022-12-18T13:05:29;53.58;;;23.67;;
32734;SDS011;19112;51.076;3.706;2022-12-18T13:08:26;47.63;;;21.27;;
32734;SDS011;19112;51.076;3.706;2022-12-18T13:10:55;51.88;;;23.65;;
32734;SDS011;19112;51.076;3.706;2022-12-18T13:13:52;51.47;;;25.35;;
32734;SDS011;19112;51.076;3.706;2022-12-18T13:16:21;49.45;;;22.83;;
32734;SDS011;19112;51.076;3.706;2022-12-18T13:18:50;46.47;;;21.85;;
32734;SDS011;19112;51.076;3.706;2022-12-18T13:21:29;54.67;;;23.42;;
32734;SDS011;19112;51.076;3.706;2022-12-18T13:24:14;50.75;;;22.85;;
32734;SDS011;19112;51.076;3.706;2022-12-18T13:26:55;49.03;;;23.30;;
32734;SDS011;19112;51.076;3.706;2022-12-18T13:32:21;53.80;;;23.98;;
32734;SDS011;19112;51.076;3.706;2022-12-18T13:37:53;48.17;;;22.70;;
32734;SDS011;19112;51.076;3.706;2022-12-18T13:43:23;52.88;;;23.33;;
32734;SDS011;19112;51.076;3.706;2022-12-18T13:46:21;53.05;;;24.65;;
32734;SDS011;19112;51.076;3.706;2022-12-18T13:51:48;49.58;;;22.85;;
32734;SDS011;19112;51.076;3.706;2022-12-18T13:54:23;61.03;;;25.90;;
32734;SDS011;19112;51.076;3.706;2022-12-18T13:56:49;56.08;;;25.63;;
32734;SDS011;19112;51.076;3.706;2022-12-18T13:59:19;54.42;;;24.73;;
32734;SDS011;19112;51.076;3.706;2022-12-18T14:02:00;52.22;;;25.08;;
32734;SDS011;19112;51.076;3.706;2022-12-18T14:04:40;58.78;;;28.58;;
32734;SDS011;19112;51.076;3.706;2022-12-18T14:07:07;55.00;;;26.20;;
32734;SDS011;19112;51.076;3.706;2022-12-18T14:09:54;60.60;;;27.23;;
32734;SDS011;19112;51.076;3.706;2022-12-18T14:12:26;54.78;;;24.58;;
32734;SDS011;19112;51.076;3.706;2022-12-18T14:20:21;58.70;;;24.50;;
32734;SDS011;19112;51.076;3.706;2022-12-18T14:22:50;54.30;;;24.55;;
32734;SDS011;19112;51.076;3.706;2022-12-18T14:25:17;55.58;;;25.02;;
32734;SDS011;19112;51.076;3.706;2022-12-18T14:27:50;55.05;;;23.73;;
32734;SDS011;19112;51.076;3.706;2022-12-18T14:35:58;52.65;;;23.33;;
32734;SDS011;19112;51.076;3.706;2022-12-18T14:38:30;58.38;;;24.27;;
32734;SDS011;19112;51.076;3.706;2022-12-18T14:41:00;57.97;;;25.45;;
32734;SDS011;19112;51.076;3.706;2022-12-18T14:43:35;55.75;;;24.95;;
32734;SDS011;19112;51.076;3.706;2022-12-18T14:46:25;56.90;;;23.35;;
32734;SDS011;19112;51.076;3.706;2022-12-18T14:51:59;57.00;;;25.23;;
32734;SDS011;19112;51.076;3.706;2022-12-18T14:54:28;55.17;;;25.00;;
32734;SDS011;19112;51.076;3.706;2022-12-18T14:57:00;57.75;;;25.30;;
32734;SDS011;19112;51.076;3.706;2022-12-18T14:59:30;86.53;;;38.88;;
32734;SDS011;19112;51.076;3.706;2022-12-18T15:01:59;125.75;;;49.60;;
32734;SDS011;19112;51.076;3.706;2022-12-18T15:04:40;62.05;;;25.60;;
32734;SDS011;19112;51.076;3.706;2022-12-18T15:12:33;57.47;;;25.30;;
32734;SDS011;19112;51.076;3.706;2022-12-18T15:15:04;57.83;;;25.02;;
32734;SDS011;19112;51.076;3.706;2022-12-18T15:17:30;56.03;;;24.27;;
32734;SDS011;19112;51.076;3.706;2022-12-18T15:20:00;55.17;;;24.42;;
32734;SDS011;19112;51.076;3.706;2022-12-18T15:22:34;57.83;;;24.98;;
32734;SDS011;19112;51.076;3.706;2022-12-18T15:25:03;60.78;;;26.45;;
32734;SDS011;19112;51.076;3.706;2022-12-18T15:27:52;64.38;;;25.40;;
32734;SDS011;19112;51.076;3.706;2022-12-18T15:30:19;57.08;;;24.95;;
32734;SDS011;19112;51.076;3.706;2022-12-18T15:32:48;56.30;;;24.80;;
32734;SDS011;19112;51.076;3.706;2022-12-18T15:35:20;61.75;;;26.10;;
32734;SDS011;19112;51.076;3.706;2022-12-18T15:37:48;58.88;;;24.45;;
32734;SDS011;19112;51.076;3.706;2022-12-18T15:40:16;53.58;;;23.58;;
32734;SDS011;19112;51.076;3.706;2022-12-18T15:42:45;55.55;;;24.15;;
32734;SDS011;19112;51.076;3.706;2022-12-18T15:45:32;92.18;;;42.70;;
32734;SDS011;19112;51.076;3.706;2022-12-18T15:47:58;61.97;;;26.00;;
32734;SDS011;19112;51.076;3.706;2022-12-18T15:50:24;59.63;;;25.88;;
32734;SDS011;19112;51.076;3.706;2022-12-18T15:52:51;60.78;;;27.25;;
32734;SDS011;19112;51.076;3.706;2022-12-18T15:55:21;61.22;;;26.05;;
32734;SDS011;19112;51.076;3.706;2022-12-18T15:58:08;60.47;;;23.60;;
32734;SDS011;19112;51.076;3.706;2022-12-18T16:00:36;56.15;;;24.80;;
32734;SDS011;19112;51.076;3.706;2022-12-18T16:03:05;63.30;;;24.92;;
32734;SDS011;19112;51.076;3.706;2022-12-18T16:05:31;57.30;;;25.45;;
32734;SDS011;19112;51.076;3.706;2022-12-18T16:07:57;61.67;;;25.05;;
32734;SDS011;19112;51.076;3.706;2022-12-18T16:10:24;60.60;;;25.55;;
32734;SDS011;19112;51.076;3.706;2022-12-18T16:12:50;59.55;;;24.85;;
32734;SDS011;19112;51.076;3.706;2022-12-18T16:15:16;58.38;;;24.70;;
32734;SDS011;19112;51.076;3.706;2022-12-18T16:17:43;60.88;;;25.05;;
32734;SDS011;19112;51.076;3.706;2022-12-18T16:20:16;57.60;;;23.90;;
32734;SDS011;19112;51.076;3.706;2022-12-18T16:22:45;62.80;;;26.85;;
32734;SDS011;19112;51.076;3.706;2022-12-18T16:25:17;62.60;;;25.30;;
32734;SDS011;19112;51.076;3.706;2022-12-18T16:27:44;62.65;;;24.20;;
32734;SDS011;19112;51.076;3.706;2022-12-18T16:30:14;58.28;;;23.88;;
32734;SDS011;19112;51.076;3.706;2022-12-18T16:32:46;59.75;;;24.90;;
32734;SDS011;19112;51.076;3.706;2022-12-18T16:35:13;53.28;;;22.40;;
32734;SDS011;19112;51.076;3.706;2022-12-18T16:37:41;55.63;;;22.60;;
32734;SDS011;19112;51.076;3.706;2022-12-18T16:40:08;52.83;;;23.17;;
32734;SDS011;19112;51.076;3.706;2022-12-18T16:42:38;60.45;;;23.77;;